Time;durP1;ratioP1;P1;durP2;ratioP2;P2;SDS_P1;SDS_P2;PMS_P1;PMS_P2;Temp;Humidity;BMP_temperature;BMP_pressure;BME280_temperature;BME280_humidity;BME280_pressure;Samples;Min_cycle;Max_cycle;Signal;HPM_P1;HPM_P2
2023/07/31 00:00:28;;;;;;;3.15;1.90;;;16.40;99.90;;;;;;4807290;29;20053;-78
2023/07/31 00:02:54;;;;;;;;;;;16.30;99.90;;;;;;4808381;29;20046;-78
2023/07/31 00:05:20;;;;;;;2.58;1.73;;;16.30;99.90;;;;;;4807984;29;19921;-78
2023/07/31 00:07:46;;;;;;;2.80;2.10;;;16.20;99.90;;;;;;4812176;29;20046;-78
2023/07/31 00:10:12;;;;;;;2.40;2.17;;;16.40;99.90;;;;;;4809611;29;20046;-78
2023/07/31 00:12:39;;;;;;;2.05;1.85;;;16.30;99.90;;;;;;4810024;29;20090;-78
2023/07/31 00:15:06;;;;;;;2.38;1.80;;;16.10;99.90;;;;;;4812970;29;20058;-78
2023/07/31 00:17:32;;;;;;;3.20;1.70;;;16.40;99.90;;;;;;4807608;29;20054;-78
2023/07/31 00:19:58;;;;;;;1.88;1.60;;;16.50;99.90;;;;;;4807414;29;20046;-78
2023/07/31 00:22:23;;;;;;;1.35;1.25;;;16.40;99.90;;;;;;4807355;29;20042;-78
2023/07/31 00:24:49;;;;;;;1.80;1.45;;;16.40;99.90;;;;;;4792753;29;20034;-79
2023/07/31 00:27:15;;;;;;;1.60;1.40;;;16.40;99.90;;;;;;4815748;29;20085;-78
2023/07/31 00:29:40;;;;;;;2.72;1.40;;;16.30;99.90;;;;;;4818184;29;20456;-79
2023/07/31 00:32:07;;;;;;;1.75;1.35;;;15.90;99.90;;;;;;4807666;29;20512;-78
2023/07/31 00:34:33;;;;;;;1.70;1.40;;;16.20;99.90;;;;;;4807340;29;20081;-78
2023/07/31 00:36:58;;;;;;;1.48;1.30;;;16.30;99.90;;;;;;4807265;29;20407;-78
2023/07/31 00:39:24;;;;;;;1.90;1.10;;;16.00;99.90;;;;;;4806792;29;20123;-78
2023/07/31 00:41:50;;;;;;;1.90;1.40;;;16.20;99.90;;;;;;4807282;29;20073;-77
2023/07/31 00:44:15;;;;;;;1.42;1.30;;;15.80;99.90;;;;;;4805323;29;20490;-78
2023/07/31 00:46:41;;;;;;;1.50;1.20;;;15.70;99.90;;;;;;4806820;29;20047;-78
2023/07/31 00:49:07;;;;;;;2.58;1.45;;;16.20;99.90;;;;;;4816738;29;20047;-78
2023/07/31 00:51:33;;;;;;;2.30;1.35;;;15.60;99.90;;;;;;4809497;29;20110;-78
2023/07/31 00:53:59;;;;;;;1.80;1.40;;;16.10;99.90;;;;;;4810912;29;20055;-78
2023/07/31 00:56:25;;;;;;;;;;;15.80;99.90;;;;;;4808818;29;20059;-78
2023/07/31 00:58:51;;;;;;;1.77;1.27;;;15.50;99.90;;;;;;4805950;29;19936;-78
2023/07/31 01:02:40;;;;;;;1.35;1.25;;;15.70;99.90;;;;;;5087217;27;2028375;-78
2023/07/31 01:05:06;;;;;;;1.48;1.38;;;16.20;99.90;;;;;;5112178;28;20047;-78
2023/07/31 01:07:39;;;;;;;1.40;1.30;;;15.70;99.90;;;;;;5108024;27;20051;-78
2023/07/31 01:10:18;;;;;;;1.20;0.98;;;15.50;99.90;;;;;;5118333;27;20051;-78
2023/07/31 01:12:46;;;;;;;1.30;1.00;;;15.50;99.90;;;;;;5114355;27;20057;-78
2023/07/31 01:15:13;;;;;;;1.55;1.20;;;15.90;99.90;;;;;;5132015;27;20054;-79
2023/07/31 01:17:40;;;;;;;1.45;0.90;;;15.40;99.90;;;;;;5139005;27;20035;-79
2023/07/31 01:20:26;;;;;;;1.20;0.90;;;16.10;99.90;;;;;;5114570;27;20154;-79
2023/07/31 01:23:17;;;;;;;1.02;0.80;;;15.90;99.90;;;;;;5129235;27;20051;-80
2023/07/31 01:25:47;;;;;;;1.23;0.90;;;15.90;99.90;;;;;;5131020;27;20039;-80
2023/07/31 01:28:43;;;;;;;1.02;0.93;;;15.70;99.90;;;;;;5131733;27;20060;-80
2023/07/31 01:31:11;;;;;;;1.40;1.08;;;15.40;99.90;;;;;;5118147;27;20043;-79
2023/07/31 01:33:37;;;;;;;1.13;1.00;;;15.60;99.90;;;;;;5125412;27;20075;-80
2023/07/31 01:36:04;;;;;;;1.15;1.02;;;15.50;99.90;;;;;;5114307;27;20100;-79
2023/07/31 01:38:29;;;;;;;1.40;1.20;;;15.60;99.90;;;;;;5131146;27;20470;-79
2023/07/31 01:40:55;;;;;;;1.05;0.95;;;15.30;99.90;;;;;;5131598;27;20039;-79
2023/07/31 01:43:20;;;;;;;1.27;1.00;;;15.50;99.90;;;;;;5104361;27;20484;-79
2023/07/31 01:45:46;;;;;;;1.17;1.08;;;15.90;99.90;;;;;;5132953;27;20038;-80
2023/07/31 01:48:12;;;;;;;1.10;0.98;;;15.60;99.90;;;;;;5111425;27;20035;-79
2023/07/31 01:50:37;;;;;;;1.48;1.20;;;15.30;99.90;;;;;;5111117;28;20047;-80
2023/07/31 01:53:03;;;;;;;1.42;0.95;;;15.50;99.90;;;;;;5094410;28;20111;-80
2023/07/31 01:55:29;;;;;;;1.17;1.02;;;16.30;99.90;;;;;;5110527;28;20123;-80
2023/07/31 01:57:54;;;;;;;1.20;1.10;;;15.40;99.90;;;;;;5109956;28;20033;-80
2023/07/31 02:00:20;;;;;;;1.50;1.08;;;15.30;99.90;;;;;;5094172;28;20039;-80
2023/07/31 02:02:46;;;;;;;0.90;0.80;;;16.00;99.90;;;;;;5107305;28;20728;-80
2023/07/31 02:05:11;;;;;;;0.98;0.75;;;15.30;99.90;;;;;;5110832;28;20394;-81
2023/07/31 02:07:37;;;;;;;0.88;0.70;;;15.20;99.90;;;;;;5093008;28;20177;-80
2023/07/31 02:10:03;;;;;;;0.60;0.60;;;15.30;99.90;;;;;;5093803;28;20035;-80
2023/07/31 02:12:31;;;;;;;0.70;0.68;;;16.20;99.90;;;;;;5096527;28;20432;-80
2023/07/31 02:14:57;;;;;;;0.77;0.60;;;15.80;99.90;;;;;;5096954;28;20058;-80
2023/07/31 02:17:23;;;;;;;0.60;0.60;;;15.40;99.90;;;;;;5092631;28;20040;-80
2023/07/31 02:19:48;;;;;;;0.82;0.70;;;15.70;99.90;;;;;;5079435;28;20039;-80
2023/07/31 02:22:14;;;;;;;0.43;0.43;;;15.20;99.90;;;;;;5078346;28;20074;-81
2023/07/31 02:24:40;;;;;;;0.50;0.40;;;15.20;99.90;;;;;;5096493;28;20035;-80
2023/07/31 02:27:05;;;;;;;0.60;0.38;;;15.60;99.90;;;;;;5097188;28;20042;-81
2023/07/31 02:29:31;;;;;;;0.80;0.50;;;15.20;99.90;;;;;;5079540;28;20104;-81
2023/07/31 02:31:57;;;;;;;0.40;0.40;;;16.30;99.90;;;;;;5095902;28;20044;-80
2023/07/31 02:34:22;;;;;;;0.40;0.40;;;15.20;99.90;;;;;;5076102;28;20036;-81
2023/07/31 02:36:48;;;;;;;0.40;0.40;;;15.80;99.90;;;;;;5080036;28;20052;-80
2023/07/31 02:39:14;;;;;;;0.80;0.45;;;16.20;99.90;;;;;;5077932;28;20053;-79
2023/07/31 02:41:39;;;;;;;0.73;0.50;;;15.10;99.90;;;;;;5084561;28;20083;-80
2023/07/31 02:44:05;;;;;;;0.57;0.50;;;15.40;99.90;;;;;;5068652;28;20036;-80
2023/07/31 02:46:31;;;;;;;0.32;0.30;;;16.20;99.90;;;;;;5073410;28;20044;-79
2023/07/31 02:48:57;;;;;;;;;;;15.50;99.90;;;;;;5094236;28;20071;-80
2023/07/31 02:51:22;;;;;;;0.30;0.30;;;15.10;99.90;;;;;;5079396;28;19966;-80
2023/07/31 02:53:48;;;;;;;0.98;0.40;;;16.50;99.90;;;;;;5095497;28;20379;-80
2023/07/31 02:56:14;;;;;;;0.30;0.30;;;15.50;99.90;;;;;;5066374;28;20079;-80
2023/07/31 02:58:39;;;;;;;0.50;0.40;;;15.20;99.90;;;;;;5079514;28;20764;-81
2023/07/31 03:01:05;;;;;;;0.20;0.20;;;15.40;99.90;;;;;;5072769;28;20534;-80
2023/07/31 03:03:31;;;;;;;0.30;0.30;;;15.00;99.90;;;;;;5091782;28;20464;-81
2023/07/31 03:05:56;;;;;;;0.75;0.40;;;15.00;99.90;;;;;;5076036;28;20036;-80
2023/07/31 03:08:22;;;;;;;0.20;0.20;;;16.40;99.90;;;;;;5092942;28;20476;-80
2023/07/31 03:10:48;;;;;;;0.20;0.20;;;16.40;99.90;;;;;;5091358;28;20042;-81
2023/07/31 03:13:14;;;;;;;0.28;0.20;;;16.50;99.90;;;;;;5093169;28;20035;-81
2023/07/31 03:15:42;;;;;;;0.22;0.20;;;16.50;99.90;;;;;;5090904;28;20036;-81
2023/07/31 03:18:08;;;;;;;0.10;0.10;;;15.00;99.90;;;;;;5091481;28;20117;-81
2023/07/31 03:20:33;;;;;;;0.10;0.10;;;16.20;99.90;;;;;;5092034;28;20097;-80
2023/07/31 03:22:59;;;;;;;0.30;0.30;;;15.00;99.90;;;;;;5075163;28;20043;-80
2023/07/31 03:25:25;;;;;;;0.20;0.20;;;15.60;99.90;;;;;;5074417;28;20032;-80
2023/07/31 03:27:50;;;;;;;0.10;0.10;;;16.40;99.90;;;;;;5109958;28;20039;-79
2023/07/31 03:30:16;;;;;;;0.25;0.20;;;15.10;99.90;;;;;;5058867;28;20447;-80
2023/07/31 03:32:42;;;;;;;0.45;0.20;;;16.20;99.90;;;;;;5074827;28;20379;-80
2023/07/31 03:35:07;;;;;;;0.30;0.28;;;15.30;99.90;;;;;;5091357;28;20040;-80
2023/07/31 03:37:33;;;;;;;0.20;0.15;;;15.50;99.90;;;;;;5091514;28;20075;-80
2023/07/31 03:39:59;;;;;;;0.20;0.20;;;15.80;99.90;;;;;;5092325;28;20043;-80
2023/07/31 03:42:24;;;;;;;0.10;0.10;;;15.00;99.90;;;;;;5058280;28;20475;-81
2023/07/31 03:44:50;;;;;;;1.02;0.30;;;14.90;99.90;;;;;;5051844;28;20037;-81
2023/07/31 03:47:16;;;;;;;0.20;0.20;;;16.50;99.90;;;;;;5047409;28;20548;-80
2023/07/31 03:49:41;;;;;;;0.40;0.30;;;16.30;99.90;;;;;;5090081;28;20042;-81
2023/07/31 03:52:07;;;;;;;0.40;0.40;;;15.10;99.90;;;;;;5091158;28;20160;-80
2023/07/31 03:54:33;;;;;;;0.30;0.30;;;16.30;99.90;;;;;;5090556;28;20047;-81
2023/07/31 03:56:58;;;;;;;0.30;0.20;;;15.90;99.90;;;;;;5075849;28;20048;-81
2023/07/31 03:59:24;;;;;;;0.30;0.30;;;16.30;99.90;;;;;;5090822;28;20048;-80
2023/07/31 04:01:50;;;;;;;0.50;0.30;;;15.10;99.90;;;;;;5085527;28;20048;-80
2023/07/31 04:04:15;;;;;;;0.20;0.17;;;16.10;99.90;;;;;;5080110;28;20037;-80
2023/07/31 04:06:41;;;;;;;0.65;0.30;;;15.90;99.90;;;;;;5075664;28;20036;-81
2023/07/31 04:09:07;;;;;;;0.20;0.20;;;16.20;99.90;;;;;;5079096;28;20122;-81
2023/07/31 04:11:32;;;;;;;0.20;0.20;;;14.90;99.90;;;;;;5071542;28;20476;-80
2023/07/31 04:13:58;;;;;;;0.20;0.20;;;15.20;99.90;;;;;;5071382;28;20036;-81
2023/07/31 04:16:24;;;;;;;0.20;0.20;;;16.40;99.90;;;;;;5071897;28;20064;-81
2023/07/31 04:18:49;;;;;;;0.13;0.13;;;16.10;99.90;;;;;;5065081;28;20036;-81
2023/07/31 04:21:15;;;;;;;0.28;0.20;;;15.10;99.90;;;;;;5084021;28;20047;-80
2023/07/31 04:23:41;;;;;;;0.20;0.20;;;14.90;99.90;;;;;;5071819;28;20040;-81
2023/07/31 04:26:06;;;;;;;0.55;0.25;;;15.10;99.90;;;;;;5077323;28;20032;-81
2023/07/31 04:28:32;;;;;;;0.32;0.20;;;15.40;99.90;;;;;;5072206;28;20043;-82
2023/07/31 04:30:58;;;;;;;0.43;0.25;;;15.00;99.90;;;;;;5067355;28;20045;-81
2023/07/31 04:33:24;;;;;;;0.50;0.28;;;15.20;99.90;;;;;;5049562;28;20050;-82
2023/07/31 04:35:53;;;;;;;0.28;0.20;;;15.60;99.90;;;;;;5046745;28;20037;-80
2023/07/31 04:38:22;;;;;;;0.20;0.10;;;16.50;99.90;;;;;;5043663;28;20368;-81
2023/07/31 04:40:48;;;;;;;0.25;0.20;;;16.40;99.90;;;;;;5080937;28;20604;-81
2023/07/31 04:43:14;;;;;;;0.10;0.10;;;16.50;99.90;;;;;;5070637;28;20043;-82
2023/07/31 04:45:42;;;;;;;0.17;0.17;;;15.50;99.90;;;;;;5052784;28;20052;-82
2023/07/31 04:48:07;;;;;;;0.17;0.17;;;16.40;99.90;;;;;;5052713;28;20067;-82
2023/07/31 04:50:33;;;;;;;0.20;0.20;;;15.10;99.90;;;;;;5046159;28;20068;-81
2023/07/31 04:52:59;;;;;;;0.35;0.13;;;16.20;99.90;;;;;;5073222;28;20046;-83
2023/07/31 04:55:24;;;;;;;0.20;0.20;;;15.00;99.90;;;;;;5054167;28;20120;-82
2023/07/31 04:57:50;;;;;;;0.38;0.20;;;16.60;99.90;;;;;;5059679;28;20158;-82
2023/07/31 05:00:16;;;;;;;0.10;0.10;;;15.70;99.90;;;;;;5071233;28;20488;-82
2023/07/31 05:02:41;;;;;;;0.30;0.20;;;16.20;99.90;;;;;;5069592;28;20098;-83
2023/07/31 05:05:07;;;;;;;0.20;0.20;;;15.60;99.90;;;;;;5070564;28;20044;-83
2023/07/31 05:07:33;;;;;;;0.10;0.10;;;16.50;99.90;;;;;;5071454;28;20044;-82
2023/07/31 05:09:59;;;;;;;0.17;0.17;;;16.00;99.90;;;;;;5072292;28;20078;-82
2023/07/31 05:12:24;;;;;;;0.10;0.10;;;14.90;99.90;;;;;;5082969;28;20403;-82
2023/07/31 05:14:50;;;;;;;0.52;0.10;;;15.70;99.90;;;;;;5090289;28;20040;-82
2023/07/31 05:17:16;;;;;;;0.20;0.15;;;16.10;99.90;;;;;;5092214;28;20036;-82
2023/07/31 05:19:42;;;;;;;0.10;0.10;;;15.00;99.90;;;;;;5052632;28;20132;-83
2023/07/31 05:22:07;;;;;;;0.32;0.32;;;15.40;99.90;;;;;;5088754;28;20043;-82
2023/07/31 05:24:33;;;;;;;0.15;0.15;;;14.90;99.90;;;;;;5071976;28;20043;-83
2023/07/31 05:26:59;;;;;;;0.10;0.10;;;16.70;99.90;;;;;;5088845;28;20051;-83
2023/07/31 05:29:24;;;;;;;0.08;0.08;;;16.90;99.90;;;;;;5097386;28;20123;-83
2023/07/31 05:31:50;;;;;;;0.10;0.10;;;16.90;99.90;;;;;;5086962;28;20466;-83
2023/07/31 05:34:16;;;;;;;0.13;0.10;;;15.70;99.90;;;;;;5086077;28;20061;-82
2023/07/31 05:36:41;;;;;;;1.48;0.20;;;16.90;99.90;;;;;;5079608;28;20148;-82
2023/07/31 05:39:08;;;;;;;0.20;0.10;;;15.20;99.90;;;;;;5073921;28;20046;-83
2023/07/31 05:41:35;;;;;;;0.30;0.20;;;15.80;99.90;;;;;;5089520;28;20067;-83
2023/07/31 05:44:00;;;;;;;0.10;0.10;;;15.00;99.90;;;;;;5073011;28;20121;-83
2023/07/31 05:46:26;;;;;;;0.10;0.10;;;16.80;99.90;;;;;;5072251;28;20063;-83
2023/07/31 05:48:52;;;;;;;0.17;0.17;;;15.50;99.90;;;;;;5072200;28;20039;-83
2023/07/31 05:51:17;;;;;;;0.45;0.20;;;17.10;99.90;;;;;;5094642;28;20126;-83
2023/07/31 05:53:43;;;;;;;0.43;0.20;;;15.00;99.90;;;;;;5092139;28;20121;-83
2023/07/31 05:56:09;;;;;;;0.25;0.25;;;14.90;99.90;;;;;;5076145;28;20048;-84
2023/07/31 05:58:34;;;;;;;0.45;0.30;;;17.20;99.90;;;;;;5098464;28;20097;-86
2023/07/31 06:01:00;;;;;;;0.20;0.20;;;16.80;99.90;;;;;;5077627;28;20043;-83
2023/07/31 06:03:26;;;;;;;0.57;0.40;;;17.80;99.90;;;;;;5103805;28;20043;-83
2023/07/31 06:05:51;;;;;;;0.30;0.30;;;16.90;99.90;;;;;;5084324;28;20041;-83
2023/07/31 06:08:17;;;;;;;0.30;0.30;;;15.00;99.90;;;;;;5067810;28;20079;-83
2023/07/31 06:10:43;;;;;;;0.70;0.50;;;15.50;99.90;;;;;;5092153;28;20044;-83
2023/07/31 06:13:09;;;;;;;1.02;0.30;;;14.80;99.90;;;;;;5093218;28;20032;-83
2023/07/31 06:15:34;;;;;;;0.70;0.50;;;17.70;99.90;;;;;;5092163;28;20036;-83
2023/07/31 06:18:01;;;;;;;0.50;0.40;;;16.20;99.90;;;;;;5085045;28;20071;-83
2023/07/31 06:20:28;;;;;;;0.45;0.40;;;15.00;99.90;;;;;;5076062;28;20064;-83
2023/07/31 06:22:53;;;;;;;0.93;0.60;;;15.90;99.90;;;;;;5062512;28;20036;-80
2023/07/31 06:25:19;;;;;;;0.73;0.63;;;14.90;99.90;;;;;;5083971;28;20517;-81
2023/07/31 06:27:45;;;;;;;1.60;1.00;;;17.80;99.90;;;;;;5089707;28;20399;-82
2023/07/31 06:30:11;;;;;;;2.72;1.38;;;17.90;99.90;;;;;;5083862;28;20040;-84
2023/07/31 06:32:37;;;;;;;;;;;15.50;99.90;;;;;;5080978;28;20745;-85
2023/07/31 06:35:03;;;;;;;2.53;1.52;;;17.50;99.90;;;;;;5072884;28;20386;-84
2023/07/31 06:37:28;;;;;;;3.63;1.70;;;16.00;99.90;;;;;;5092781;28;20092;-84
2023/07/31 06:39:54;;;;;;;3.40;1.90;;;16.80;99.90;;;;;;5089160;28;20048;-87
2023/07/31 06:42:20;;;;;;;2.95;2.00;;;18.20;99.90;;;;;;5068125;28;20040;-86
2023/07/31 06:44:45;;;;;;;3.30;1.98;;;15.80;99.90;;;;;;5054932;28;20039;-86
2023/07/31 06:47:11;;;;;;;5.38;2.50;;;18.00;99.90;;;;;;5087108;28;20047;-86
2023/07/31 06:49:37;;;;;;;6.57;3.00;;;18.00;99.90;;;;;;5070545;28;20039;-85
2023/07/31 06:52:03;;;;;;;6.93;3.20;;;15.50;99.90;;;;;;5073291;28;21210;-86
2023/07/31 06:54:28;;;;;;;5.38;2.67;;;15.70;99.90;;;;;;5090955;28;20356;-85
2023/07/31 06:56:54;;;;;;;6.78;3.30;;;16.20;99.90;;;;;;5089118;28;20056;-85
2023/07/31 06:59:20;;;;;;;5.05;2.50;;;18.10;99.90;;;;;;5089927;28;20046;-84
2023/07/31 07:01:45;;;;;;;7.25;3.15;;;18.00;99.90;;;;;;5083926;28;20528;-85
2023/07/31 07:04:11;;;;;;;7.38;3.38;;;16.40;99.90;;;;;;5065798;28;20032;-85
2023/07/31 07:06:37;;;;;;;8.98;3.47;;;17.80;99.90;;;;;;5054369;28;20036;-84
2023/07/31 07:09:03;;;;;;;;;;;17.40;99.90;;;;;;5068889;28;20082;-86
2023/07/31 07:11:28;;;;;;;6.63;2.92;;;16.10;99.90;;;;;;5069057;28;20016;-84
2023/07/31 07:13:54;;;;;;;;;;;19.10;99.90;;;;;;5054113;28;20150;-85
2023/07/31 07:16:20;;;;;;;4.30;2.60;;;16.20;99.90;;;;;;5054648;28;20006;-85
2023/07/31 07:18:45;;;;;;;5.05;2.17;;;18.60;99.90;;;;;;5068176;28;20058;-85
2023/07/31 07:21:15;;;;;;;6.10;2.40;;;16.80;99.90;;;;;;5067988;28;20059;-84
2023/07/31 07:23:44;;;;;;;4.20;2.40;;;16.00;99.90;;;;;;5068893;28;20430;-83
2023/07/31 07:26:09;;;;;;;3.53;2.17;;;17.10;99.90;;;;;;5039159;28;20361;-84
2023/07/31 07:28:37;;;;;;;;;;;19.00;99.90;;;;;;5064957;28;20078;-85
2023/07/31 07:31:03;;;;;;;6.30;2.80;;;16.60;99.90;;;;;;5050699;28;19917;-85
2023/07/31 07:33:28;;;;;;;;;;;18.40;99.90;;;;;;5078486;28;20564;-85
2023/07/31 07:35:54;;;;;;;7.00;3.15;;;17.20;99.90;;;;;;5073885;28;19955;-86
2023/07/31 07:38:20;;;;;;;;;;;16.20;99.90;;;;;;5043299;28;20090;-86
2023/07/31 07:40:50;;;;;;;7.38;3.40;;;18.40;99.90;;;;;;5051333;28;19920;-86
2023/07/31 07:43:16;;;;;;;3.83;2.67;;;16.00;99.90;;;;;;5068095;28;20040;-85
2023/07/31 07:45:41;;;;;;;;;;;18.90;99.90;;;;;;5069022;28;20487;-86
2023/07/31 07:48:07;;;;;;;5.90;3.08;;;16.30;99.90;;;;;;5051998;28;19974;-86
2023/07/31 07:50:33;;;;;;;5.70;2.90;;;18.40;99.90;;;;;;5051939;28;20047;-87
2023/07/31 07:52:58;;;;;;;4.47;2.65;;;16.60;99.90;;;;;;5053068;28;20036;-87
2023/07/31 07:55:24;;;;;;;3.20;2.22;;;15.80;99.90;;;;;;5036910;28;20064;-87
2023/07/31 07:57:50;;;;;;;3.70;1.80;;;15.80;99.90;;;;;;5069977;28;20033;-87
2023/07/31 08:00:16;;;;;;;;;;;15.70;99.90;;;;;;5053992;28;20391;-86
2023/07/31 08:02:43;;;;;;;3.30;1.27;;;17.90;99.90;;;;;;5088087;28;20002;-87
2023/07/31 08:05:08;;;;;;;1.38;1.00;;;16.00;99.90;;;;;;5086628;28;20116;-86
2023/07/31 08:07:34;;;;;;;1.13;0.80;;;16.30;99.90;;;;;;5062647;28;20040;-87
2023/07/31 08:10:00;;;;;;;1.40;1.00;;;17.30;99.90;;;;;;5056065;28;20066;-86
2023/07/31 08:12:26;;;;;;;1.58;0.90;;;17.90;99.90;;;;;;5084608;28;20064;-85
2023/07/31 08:14:52;;;;;;;;;;;18.00;99.90;;;;;;5081510;28;20376;-87
2023/07/31 08:17:17;;;;;;;1.88;1.00;;;17.40;99.90;;;;;;5072865;28;20363;-86
2023/07/31 08:19:44;;;;;;;1.60;0.75;;;16.30;99.90;;;;;;5090263;28;20102;-87
2023/07/31 08:22:09;;;;;;;1.50;0.90;;;18.40;99.90;;;;;;5072835;28;20036;-85
2023/07/31 08:24:35;;;;;;;1.70;0.80;;;15.90;99.90;;;;;;5072818;28;20039;-85
2023/07/31 08:27:01;;;;;;;1.00;0.60;;;16.20;99.90;;;;;;5076539;28;20093;-86
2023/07/31 08:29:26;;;;;;;0.90;0.60;;;16.80;99.90;;;;;;5066932;28;20526;-85
2023/07/31 08:31:52;;;;;;;1.10;0.70;;;18.90;99.90;;;;;;5080768;28;20465;-86
2023/07/31 08:34:18;;;;;;;1.88;1.00;;;17.00;99.90;;;;;;5072790;28;20039;-87
2023/07/31 08:36:43;;;;;;;0.90;0.70;;;18.50;99.90;;;;;;5089596;28;20123;-84
2023/07/31 08:39:10;;;;;;;0.90;0.70;;;18.00;99.90;;;;;;5089269;28;20127;-88
2023/07/31 08:41:39;;;;;;;1.40;0.88;;;16.30;99.90;;;;;;5072563;28;20055;-86
2023/07/31 08:44:07;;;;;;;0.95;0.70;;;17.10;99.90;;;;;;5069119;28;20048;-83
2023/07/31 08:46:33;;;;;;;0.98;0.75;;;16.80;99.90;;;;;;5075476;28;20040;-85
2023/07/31 08:49:00;;;;;;;0.95;0.60;;;16.40;99.90;;;;;;5089344;28;20036;-84
2023/07/31 08:51:26;;;;;;;1.00;0.60;;;19.60;99.90;;;;;;5089283;28;20527;-84
2023/07/31 08:53:53;;;;;;;0.80;0.60;;;19.50;99.90;;;;;;5089403;28;20039;-85
2023/07/31 08:56:19;;;;;;;1.30;0.70;;;17.40;99.90;;;;;;5072604;28;20086;-84
2023/07/31 08:58:47;;;;;;;0.70;0.52;;;19.20;99.90;;;;;;5089363;28;20063;-85
2023/07/31 09:01:13;;;;;;;0.75;0.57;;;19.60;99.90;;;;;;5088694;28;20052;-85
2023/07/31 09:03:40;;;;;;;0.88;0.60;;;19.50;99.90;;;;;;5055828;28;20564;-85
2023/07/31 09:06:07;;;;;;;0.65;0.50;;;16.80;99.90;;;;;;5089590;28;20048;-84
2023/07/31 09:08:33;;;;;;;0.60;0.60;;;17.20;99.90;;;;;;5058255;28;20043;-84
2023/07/31 09:11:02;;;;;;;0.70;0.50;;;16.90;99.90;;;;;;5089337;28;20391;-84
2023/07/31 09:13:29;;;;;;;0.60;0.50;;;18.90;99.90;;;;;;5089410;28;20048;-84
2023/07/31 09:15:55;;;;;;;0.60;0.57;;;19.30;99.90;;;;;;5072626;28;20040;-83
2023/07/31 09:18:22;;;;;;;;;;;19.40;99.90;;;;;;5056246;28;20048;-86
2023/07/31 09:21:20;;;;;;;0.88;0.60;;;18.00;99.90;;;;;;5089327;28;20358;-86
2023/07/31 09:23:54;;;;;;;0.45;0.40;;;19.10;99.90;;;;;;5063440;28;20512;-84
2023/07/31 09:26:33;;;;;;;0.65;0.50;;;16.70;99.90;;;;;;5093286;28;20036;-85
2023/07/31 09:29:00;;;;;;;0.70;0.50;;;16.80;99.90;;;;;;5092877;28;20044;-85
2023/07/31 09:31:42;;;;;;;0.45;0.32;;;19.20;99.90;;;;;;5093284;28;20036;-85
2023/07/31 09:34:08;;;;;;;1.05;0.60;;;19.10;99.90;;;;;;5092893;28;20047;-85
2023/07/31 09:36:41;;;;;;;;;;;16.90;99.90;;;;;;5093693;28;20036;-85
2023/07/31 09:39:09;;;;;;;0.40;0.40;;;16.60;99.90;;;;;;5093095;28;19915;-85
2023/07/31 09:41:44;;;;;;;0.47;0.35;;;19.00;99.90;;;;;;5092762;28;20136;-85
2023/07/31 09:44:10;;;;;;;0.38;0.38;;;16.60;99.90;;;;;;5075950;28;20047;-86
2023/07/31 09:46:37;;;;;;;;;;;16.90;99.90;;;;;;5093445;28;20040;-85
2023/07/31 09:49:06;;;;;;;0.30;0.30;;;18.50;99.90;;;;;;5092835;28;19916;-86
2023/07/31 09:51:32;;;;;;;0.43;0.40;;;17.90;99.90;;;;;;5075825;28;20059;-86
2023/07/31 09:53:57;;;;;;;;;;;17.30;99.90;;;;;;5093195;28;20040;-85
2023/07/31 09:56:24;;;;;;;0.50;0.30;;;17.00;99.90;;;;;;5074234;28;20008;-84
2023/07/31 09:58:50;;;;;;;0.88;0.30;;;19.20;99.90;;;;;;5092690;28;20039;-82
2023/07/31 10:01:16;;;;;;;;;;;16.40;99.90;;;;;;5074970;28;20048;-83
2023/07/31 10:03:44;;;;;;;0.45;0.20;;;16.70;99.90;;;;;;5055887;28;20402;-83
2023/07/31 10:06:11;;;;;;;0.17;0.10;;;18.10;99.90;;;;;;5073061;28;20505;-83
2023/07/31 10:08:38;;;;;;;0.10;0.10;;;18.90;99.90;;;;;;5069527;28;20043;-83
2023/07/31 10:11:04;;;;;;;0.25;0.20;;;18.70;99.90;;;;;;5072115;28;20048;-84
2023/07/31 10:13:30;;;;;;;0.10;0.10;;;17.40;99.90;;;;;;5071804;28;20487;-84
2023/07/31 10:16:00;;;;;;;;;;;19.00;99.90;;;;;;5041896;28;20044;-84
2023/07/31 10:18:27;;;;;;;0.00;0.00;;;17.40;99.90;;;;;;5055418;28;19939;-84
2023/07/31 10:20:54;;;;;;;0.30;0.10;;;17.80;99.90;;;;;;5071689;28;20448;-84
2023/07/31 10:23:20;;;;;;;0.10;0.10;;;18.80;99.90;;;;;;5071577;28;20047;-84
2023/07/31 10:25:47;;;;;;;;;;;16.60;99.90;;;;;;5072205;28;20036;-84
2023/07/31 10:28:13;;;;;;;0.20;0.10;;;19.90;99.90;;;;;;5071862;28;19912;-85
2023/07/31 10:30:40;;;;;;;0.00;0.00;;;17.70;99.90;;;;;;5038209;28;20037;-84
2023/07/31 10:33:06;;;;;;;0.05;0.03;;;17.90;99.90;;;;;;5050994;28;20070;-83
2023/07/31 10:35:32;;;;;;;0.10;0.10;;;19.70;99.90;;;;;;5064905;28;20068;-83
2023/07/31 10:38:11;;;;;;;0.00;0.00;;;19.60;99.90;;;;;;5054496;28;20127;-84
2023/07/31 10:40:37;;;;;;;0.10;0.10;;;20.10;99.90;;;;;;5071396;28;20037;-85
2023/07/31 10:43:02;;;;;;;;;;;17.00;99.90;;;;;;5071555;28;20119;-84
2023/07/31 10:45:39;;;;;;;0.65;0.17;;;20.30;99.90;;;;;;5071045;28;20007;-84
2023/07/31 10:48:16;;;;;;;0.50;0.30;;;17.30;99.90;;;;;;5070699;28;20808;-85
2023/07/31 10:50:52;;;;;;;;;;;17.60;99.90;;;;;;5053854;28;20480;-85
2023/07/31 10:53:26;;;;;;;0.50;0.20;;;17.40;99.90;;;;;;5057764;28;19920;-85
2023/07/31 10:55:52;;;;;;;0.55;0.30;;;19.30;99.90;;;;;;5071120;28;20045;-84
2023/07/31 10:58:19;;;;;;;;;;;17.80;99.90;;;;;;5059514;28;20399;-85
2023/07/31 11:00:45;;;;;;;0.80;0.20;;;17.50;99.90;;;;;;5080221;28;20352;-86
2023/07/31 11:03:11;;;;;;;;;;;18.50;99.90;;;;;;5054713;28;20055;-85
2023/07/31 11:05:47;;;;;;;0.88;0.30;;;19.70;99.90;;;;;;5071528;28;20012;-85
2023/07/31 11:08:17;;;;;;;1.33;0.65;;;18.70;99.90;;;;;;5071212;28;20138;-85
2023/07/31 11:10:44;;;;;;;0.22;0.22;;;19.40;99.90;;;;;;5070933;28;20131;-85
2023/07/31 11:13:10;;;;;;;0.20;0.20;;;19.70;99.90;;;;;;5054383;28;20435;-85
2023/07/31 11:15:35;;;;;;;0.20;0.20;;;19.80;99.90;;;;;;5040275;28;20094;-86
2023/07/31 11:18:05;;;;;;;;;;;20.10;99.90;;;;;;5054644;28;20037;-83
2023/07/31 11:20:35;;;;;;;0.43;0.40;;;20.10;99.90;;;;;;5070787;28;19920;-86
2023/07/31 11:23:02;;;;;;;1.95;0.70;;;19.40;99.90;;;;;;5070615;28;20124;-84
2023/07/31 11:25:31;;;;;;;0.52;0.50;;;17.90;99.90;;;;;;5070989;28;20044;-85
2023/07/31 11:28:04;;;;;;;0.85;0.60;;;18.40;99.90;;;;;;5070944;28;20035;-84
2023/07/31 11:30:30;;;;;;;0.63;0.60;;;18.10;99.90;;;;;;5054314;28;20140;-85
2023/07/31 11:32:55;;;;;;;;;;;18.40;99.90;;;;;;5037938;28;20127;-85
2023/07/31 11:35:22;;;;;;;1.33;0.70;;;20.10;99.90;;;;;;5070869;28;19923;-85
2023/07/31 11:37:48;;;;;;;0.65;0.60;;;19.80;99.90;;;;;;5054016;28;20049;-85
2023/07/31 11:40:14;;;;;;;1.15;0.60;;;17.40;99.90;;;;;;5037179;28;20040;-85
2023/07/31 11:42:40;;;;;;;0.63;0.50;;;17.50;99.90;;;;;;5039109;28;20037;-83
2023/07/31 11:45:08;;;;;;;0.63;0.45;;;19.50;99.90;;;;;;5048994;28;20515;-82
2023/07/31 11:47:35;;;;;;;0.82;0.40;;;18.20;99.90;;;;;;5053383;28;20036;-83
2023/07/31 11:50:01;;;;;;;1.40;0.50;;;17.50;99.90;;;;;;5070398;28;20078;-83
2023/07/31 11:52:37;;;;;;;1.20;0.80;;;17.60;99.90;;;;;;5053664;28;20044;-83
2023/07/31 11:55:04;;;;;;;1.60;0.65;;;17.40;99.90;;;;;;5070153;28;20499;-84
2023/07/31 11:57:30;;;;;;;1.17;0.80;;;17.00;99.90;;;;;;5070082;28;20101;-84
2023/07/31 11:59:56;;;;;;;;;;;18.70;99.90;;;;;;5036825;28;20131;-83
2023/07/31 12:02:23;;;;;;;1.02;0.80;;;19.80;99.90;;;;;;5083145;28;19943;-85
2023/07/31 12:04:49;;;;;;;1.27;0.75;;;19.10;99.90;;;;;;5090205;28;20040;-84
2023/07/31 12:07:14;;;;;;;;;;;17.20;99.90;;;;;;5073786;28;20042;-84
2023/07/31 12:09:52;;;;;;;2.42;0.70;;;20.40;99.90;;;;;;5079478;28;19916;-84
2023/07/31 12:12:25;;;;;;;1.50;0.75;;;17.40;99.90;;;;;;5087738;28;20044;-84
2023/07/31 12:14:51;;;;;;;1.77;0.73;;;19.60;99.90;;;;;;5073455;28;20094;-84
2023/07/31 12:17:18;;;;;;;;;;;20.50;99.90;;;;;;5073281;28;20464;-85
2023/07/31 12:19:44;;;;;;;1.40;0.70;;;18.10;99.90;;;;;;5089989;28;19927;-83
2023/07/31 12:22:13;;;;;;;;;;;19.10;99.90;;;;;;5090598;28;20040;-84
2023/07/31 12:24:44;;;;;;;1.17;0.70;;;20.50;99.90;;;;;;5090057;28;20370;-84
2023/07/31 12:27:14;;;;;;;0.93;0.70;;;19.10;99.90;;;;;;5090210;28;20044;-84
2023/07/31 12:29:43;;;;;;;0.88;0.60;;;20.40;99.90;;;;;;5073314;28;20046;-84
2023/07/31 12:32:25;;;;;;;1.73;0.70;;;20.10;99.90;;;;;;5090199;28;20044;-84
2023/07/31 12:34:51;;;;;;;2.10;0.80;;;20.60;99.90;;;;;;5077566;28;20062;-84
2023/07/31 12:37:17;;;;;;;0.52;0.52;;;19.30;99.90;;;;;;5071851;28;20044;-83
2023/07/31 12:39:43;;;;;;;1.77;0.85;;;20.40;99.90;;;;;;5090278;28;20126;-83
2023/07/31 12:42:09;;;;;;;;;;;19.70;99.90;;;;;;5090483;28;20457;-83
2023/07/31 12:44:34;;;;;;;1.45;0.90;;;19.00;99.90;;;;;;5089419;28;19920;-83
2023/07/31 12:47:00;;;;;;;;;;;18.70;99.90;;;;;;5073495;28;20054;-84
2023/07/31 12:49:25;;;;;;;1.27;0.90;;;18.40;99.90;;;;;;5089615;28;19916;-84
2023/07/31 12:51:51;;;;;;;;;;;19.50;99.90;;;;;;5073246;28;20040;-83
2023/07/31 12:54:17;;;;;;;1.27;0.90;;;19.90;99.90;;;;;;5089663;28;19920;-84